sensor_id;sensor_type;location;lat;lon;timestamp;temperature;humidity
19945;DHT22;10134;50.952;6.930;2022-07-22T00:01:54;20.20;99.90
19945;DHT22;10134;50.952;6.930;2022-07-22T00:04:21;20.20;99.90
19945;DHT22;10134;50.952;6.930;2022-07-22T00:06:48;20.20;99.90
19945;DHT22;10134;50.952;6.930;2022-07-22T00:09:16;20.20;99.90
19945;DHT22;10134;50.952;6.930;2022-07-22T00:11:43;20.20;99.90
19945;DHT22;10134;50.952;6.930;2022-07-22T00:14:10;20.20;99.90
19945;DHT22;10134;50.952;6.930;2022-07-22T00:16:39;20.20;99.90
19945;DHT22;10134;50.952;6.930;2022-07-22T00:19:07;20.20;99.90
19945;DHT22;10134;50.952;6.930;2022-07-22T00:21:34;20.20;99.90
19945;DHT22;10134;50.952;6.930;2022-07-22T00:24:02;20.20;99.90
19945;DHT22;10134;50.952;6.930;2022-07-22T00:26:31;20.10;99.90
19945;DHT22;10134;50.952;6.930;2022-07-22T00:28:58;20.10;99.90
19945;DHT22;10134;50.952;6.930;2022-07-22T00:31:27;20.10;99.90
19945;DHT22;10134;50.952;6.930;2022-07-22T00:33:55;20.10;99.90
19945;DHT22;10134;50.952;6.930;2022-07-22T00:36:23;20.10;99.90
19945;DHT22;10134;50.952;6.930;2022-07-22T00:38:50;20.10;99.90
19945;DHT22;10134;50.952;6.930;2022-07-22T00:41:17;20.10;99.90
19945;DHT22;10134;50.952;6.930;2022-07-22T00:43:59;20.10;99.90
19945;DHT22;10134;50.952;6.930;2022-07-22T00:46:27;20.10;99.90
19945;DHT22;10134;50.952;6.930;2022-07-22T00:48:55;20.10;99.90
19945;DHT22;10134;50.952;6.930;2022-07-22T00:51:25;20.00;99.90
19945;DHT22;10134;50.952;6.930;2022-07-22T00:53:54;20.00;99.90
19945;DHT22;10134;50.952;6.930;2022-07-22T00:56:22;20.00;99.90
19945;DHT22;10134;50.952;6.930;2022-07-22T00:58:51;20.00;99.90
19945;DHT22;10134;50.952;6.930;2022-07-22T01:01:19;20.00;99.90
19945;DHT22;10134;50.952;6.930;2022-07-22T01:03:47;20.00;99.90
19945;DHT22;10134;50.952;6.930;2022-07-22T01:06:16;20.00;99.90
19945;DHT22;10134;50.952;6.930;2022-07-22T01:08:44;20.00;99.90
19945;DHT22;10134;50.952;6.930;2022-07-22T01:11:18;20.00;99.90
19945;DHT22;10134;50.952;6.930;2022-07-22T01:13:47;20.00;99.90
19945;DHT22;10134;50.952;6.930;2022-07-22T01:16:16;20.00;99.90
19945;DHT22;10134;50.952;6.930;2022-07-22T01:18:44;20.00;99.90
19945;DHT22;10134;50.952;6.930;2022-07-22T01:21:12;20.00;99.90
19945;DHT22;10134;50.952;6.930;2022-07-22T01:23:40;20.00;99.90
19945;DHT22;10134;50.952;6.930;2022-07-22T01:26:08;20.00;99.90
19945;DHT22;10134;50.952;6.930;2022-07-22T01:28:35;20.00;99.90
19945;DHT22;10134;50.952;6.930;2022-07-22T01:31:03;20.00;99.90
19945;DHT22;10134;50.952;6.930;2022-07-22T01:33:31;20.00;99.90
19945;DHT22;10134;50.952;6.930;2022-07-22T01:35:58;20.00;99.90
19945;DHT22;10134;50.952;6.930;2022-07-22T01:38:26;20.00;99.90
19945;DHT22;10134;50.952;6.930;2022-07-22T01:40:53;20.00;99.90
19945;DHT22;10134;50.952;6.930;2022-07-22T01:43:21;20.00;99.90
19945;DHT22;10134;50.952;6.930;2022-07-22T01:45:51;20.00;99.90
19945;DHT22;10134;50.952;6.930;2022-07-22T01:48:21;19.90;99.90
19945;DHT22;10134;50.952;6.930;2022-07-22T01:50:48;19.90;99.90
19945;DHT22;10134;50.952;6.930;2022-07-22T01:53:17;20.00;99.90
19945;DHT22;10134;50.952;6.930;2022-07-22T01:55:45;20.00;99.90
19945;DHT22;10134;50.952;6.930;2022-07-22T01:58:15;20.00;99.90
19945;DHT22;10134;50.952;6.930;2022-07-22T02:00:42;20.00;99.90
19945;DHT22;10134;50.952;6.930;2022-07-22T02:03:10;20.00;99.90
19945;DHT22;10134;50.952;6.930;2022-07-22T02:05:38;20.00;99.90
19945;DHT22;10134;50.952;6.930;2022-07-22T02:08:17;20.00;99.90
19945;DHT22;10134;50.952;6.930;2022-07-22T02:11:07;20.00;99.90
19945;DHT22;10134;50.952;6.930;2022-07-22T02:13:42;20.00;99.90
19945;DHT22;10134;50.952;6.930;2022-07-22T02:16:10;19.90;99.90
19945;DHT22;10134;50.952;6.930;2022-07-22T02:18:46;19.90;99.90
19945;DHT22;10134;50.952;6.930;2022-07-22T02:21:13;19.90;99.90
19945;DHT22;10134;50.952;6.930;2022-07-22T02:23:41;19.90;99.90
19945;DHT22;10134;50.952;6.930;2022-07-22T02:26:09;19.90;99.90
19945;DHT22;10134;50.952;6.930;2022-07-22T02:28:36;19.90;99.90
19945;DHT22;10134;50.952;6.930;2022-07-22T02:31:04;19.90;99.90
19945;DHT22;10134;50.952;6.930;2022-07-22T02:33:32;19.90;99.90
19945;DHT22;10134;50.952;6.930;2022-07-22T02:36:00;19.90;99.90
19945;DHT22;10134;50.952;6.930;2022-07-22T02:38:32;19.90;99.90
19945;DHT22;10134;50.952;6.930;2022-07-22T02:40:59;19.80;99.90
19945;DHT22;10134;50.952;6.930;2022-07-22T02:43:26;19.80;99.90
19945;DHT22;10134;50.952;6.930;2022-07-22T02:45:54;19.80;99.90
19945;DHT22;10134;50.952;6.930;2022-07-22T02:48:22;19.80;99.90
19945;DHT22;10134;50.952;6.930;2022-07-22T02:50:49;19.80;99.90
19945;DHT22;10134;50.952;6.930;2022-07-22T02:53:22;19.80;99.90
19945;DHT22;10134;50.952;6.930;2022-07-22T02:55:50;19.80;99.90
19945;DHT22;10134;50.952;6.930;2022-07-22T02:58:18;19.80;99.90
19945;DHT22;10134;50.952;6.930;2022-07-22T03:00:46;19.80;99.90
19945;DHT22;10134;50.952;6.930;2022-07-22T03:03:13;19.80;99.90
19945;DHT22;10134;50.952;6.930;2022-07-22T03:05:41;19.80;99.90
19945;DHT22;10134;50.952;6.930;2022-07-22T03:08:32;19.80;99.90
19945;DHT22;10134;50.952;6.930;2022-07-22T03:10:59;19.80;99.90
19945;DHT22;10134;50.952;6.930;2022-07-22T03:13:27;19.80;99.90
19945;DHT22;10134;50.952;6.930;2022-07-22T03:15:54;19.80;99.90
19945;DHT22;10134;50.952;6.930;2022-07-22T03:18:21;19.80;99.90
19945;DHT22;10134;50.952;6.930;2022-07-22T03:20:49;19.80;99.90
19945;DHT22;10134;50.952;6.930;2022-07-22T03:23:16;19.80;99.90
19945;DHT22;10134;50.952;6.930;2022-07-22T03:25:43;19.80;99.90
19945;DHT22;10134;50.952;6.930;2022-07-22T03:28:11;19.80;99.90
19945;DHT22;10134;50.952;6.930;2022-07-22T03:30:38;19.80;99.90
19945;DHT22;10134;50.952;6.930;2022-07-22T03:33:06;19.80;99.90
19945;DHT22;10134;50.952;6.930;2022-07-22T03:35:37;19.80;99.90
19945;DHT22;10134;50.952;6.930;2022-07-22T03:38:05;19.80;99.90
19945;DHT22;10134;50.952;6.930;2022-07-22T03:40:34;19.80;99.90
19945;DHT22;10134;50.952;6.930;2022-07-22T03:43:03;19.80;99.90
19945;DHT22;10134;50.952;6.930;2022-07-22T03:45:31;19.80;99.90
19945;DHT22;10134;50.952;6.930;2022-07-22T03:47:59;19.80;99.90
19945;DHT22;10134;50.952;6.930;2022-07-22T03:50:31;19.80;99.90
19945;DHT22;10134;50.952;6.930;2022-07-22T03:52:58;19.80;99.90
19945;DHT22;10134;50.952;6.930;2022-07-22T03:55:26;19.80;99.90
19945;DHT22;10134;50.952;6.930;2022-07-22T03:57:56;19.80;99.90
19945;DHT22;10134;50.952;6.930;2022-07-22T04:00:32;19.80;99.90
19945;DHT22;10134;50.952;6.930;2022-07-22T04:03:02;19.80;99.90
19945;DHT22;10134;50.952;6.930;2022-07-22T04:05:48;19.80;99.90
19945;DHT22;10134;50.952;6.930;2022-07-22T04:08:26;19.80;99.90
19945;DHT22;10134;50.952;6.930;2022-07-22T04:10:54;19.80;99.90
19945;DHT22;10134;50.952;6.930;2022-07-22T04:13:22;19.80;99.90
19945;DHT22;10134;50.952;6.930;2022-07-22T04:15:54;19.80;99.90
19945;DHT22;10134;50.952;6.930;2022-07-22T04:18:22;19.80;99.90
19945;DHT22;10134;50.952;6.930;2022-07-22T04:20:50;19.80;99.90
19945;DHT22;10134;50.952;6.930;2022-07-22T04:23:29;19.80;99.90
19945;DHT22;10134;50.952;6.930;2022-07-22T04:26:14;19.80;99.90
19945;DHT22;10134;50.952;6.930;2022-07-22T04:28:42;19.80;99.90
19945;DHT22;10134;50.952;6.930;2022-07-22T04:31:09;19.80;99.90
19945;DHT22;10134;50.952;6.930;2022-07-22T04:33:40;19.80;99.90
19945;DHT22;10134;50.952;6.930;2022-07-22T04:36:07;19.80;99.90
19945;DHT22;10134;50.952;6.930;2022-07-22T04:38:35;19.80;99.90
19945;DHT22;10134;50.952;6.930;2022-07-22T04:41:04;19.70;99.90
19945;DHT22;10134;50.952;6.930;2022-07-22T04:43:32;19.80;99.90
19945;DHT22;10134;50.952;6.930;2022-07-22T04:45:59;19.80;99.90
19945;DHT22;10134;50.952;6.930;2022-07-22T04:48:32;19.80;99.90
19945;DHT22;10134;50.952;6.930;2022-07-22T04:51:02;19.80;99.90
19945;DHT22;10134;50.952;6.930;2022-07-22T04:53:31;19.80;99.90
19945;DHT22;10134;50.952;6.930;2022-07-22T04:56:11;19.70;99.90
19945;DHT22;10134;50.952;6.930;2022-07-22T04:58:38;19.70;99.90
19945;DHT22;10134;50.952;6.930;2022-07-22T05:01:05;19.70;99.90
19945;DHT22;10134;50.952;6.930;2022-07-22T05:03:33;19.70;99.90
19945;DHT22;10134;50.952;6.930;2022-07-22T05:06:03;19.70;99.90
19945;DHT22;10134;50.952;6.930;2022-07-22T05:08:36;19.70;99.90
19945;DHT22;10134;50.952;6.930;2022-07-22T05:11:03;19.80;99.90
19945;DHT22;10134;50.952;6.930;2022-07-22T05:13:31;19.70;99.90
19945;DHT22;10134;50.952;6.930;2022-07-22T05:16:07;19.70;99.90
19945;DHT22;10134;50.952;6.930;2022-07-22T05:18:36;19.70;99.90
19945;DHT22;10134;50.952;6.930;2022-07-22T05:21:05;19.80;99.90
19945;DHT22;10134;50.952;6.930;2022-07-22T05:23:33;19.80;99.90
19945;DHT22;10134;50.952;6.930;2022-07-22T05:26:01;19.70;99.90
19945;DHT22;10134;50.952;6.930;2022-07-22T05:28:28;19.70;99.90
19945;DHT22;10134;50.952;6.930;2022-07-22T05:30:56;19.70;99.90
19945;DHT22;10134;50.952;6.930;2022-07-22T05:33:27;19.70;99.90
19945;DHT22;10134;50.952;6.930;2022-07-22T05:36:06;19.70;99.90
19945;DHT22;10134;50.952;6.930;2022-07-22T05:38:40;19.80;99.90
19945;DHT22;10134;50.952;6.930;2022-07-22T05:41:08;19.80;99.90
19945;DHT22;10134;50.952;6.930;2022-07-22T05:43:35;19.80;99.90
19945;DHT22;10134;50.952;6.930;2022-07-22T05:46:05;19.80;99.90
19945;DHT22;10134;50.952;6.930;2022-07-22T05:48:33;19.80;99.90
19945;DHT22;10134;50.952;6.930;2022-07-22T05:51:01;19.80;99.90
19945;DHT22;10134;50.952;6.930;2022-07-22T05:53:31;19.80;99.90
19945;DHT22;10134;50.952;6.930;2022-07-22T05:55:58;19.80;99.90
19945;DHT22;10134;50.952;6.930;2022-07-22T05:58:33;19.80;99.90
19945;DHT22;10134;50.952;6.930;2022-07-22T06:01:00;19.80;99.90
19945;DHT22;10134;50.952;6.930;2022-07-22T06:03:28;19.80;99.90
19945;DHT22;10134;50.952;6.930;2022-07-22T06:05:55;19.80;99.90
19945;DHT22;10134;50.952;6.930;2022-07-22T06:08:23;19.80;99.90
19945;DHT22;10134;50.952;6.930;2022-07-22T06:10:52;19.80;99.90
19945;DHT22;10134;50.952;6.930;2022-07-22T06:13:20;19.80;99.90
19945;DHT22;10134;50.952;6.930;2022-07-22T06:15:48;19.90;99.90
19945;DHT22;10134;50.952;6.930;2022-07-22T06:18:15;19.90;99.90
19945;DHT22;10134;50.952;6.930;2022-07-22T06:20:43;19.90;99.90
19945;DHT22;10134;50.952;6.930;2022-07-22T06:23:11;19.90;99.90
19945;DHT22;10134;50.952;6.930;2022-07-22T06:25:38;19.90;99.90
19945;DHT22;10134;50.952;6.930;2022-07-22T06:28:15;19.90;99.90
19945;DHT22;10134;50.952;6.930;2022-07-22T06:30:42;20.00;99.90
19945;DHT22;10134;50.952;6.930;2022-07-22T06:33:10;20.00;99.90
19945;DHT22;10134;50.952;6.930;2022-07-22T06:35:40;20.00;99.90
19945;DHT22;10134;50.952;6.930;2022-07-22T06:38:08;20.00;99.90
19945;DHT22;10134;50.952;6.930;2022-07-22T06:41:08;20.00;99.90
19945;DHT22;10134;50.952;6.930;2022-07-22T06:43:53;20.00;99.90
19945;DHT22;10134;50.952;6.930;2022-07-22T06:46:45;20.10;99.90
19945;DHT22;10134;50.952;6.930;2022-07-22T06:49:16;20.10;99.90
19945;DHT22;10134;50.952;6.930;2022-07-22T06:51:44;20.10;99.90
19945;DHT22;10134;50.952;6.930;2022-07-22T06:54:12;20.10;99.90
19945;DHT22;10134;50.952;6.930;2022-07-22T06:56:39;20.10;99.90
19945;DHT22;10134;50.952;6.930;2022-07-22T06:59:10;20.20;99.90
19945;DHT22;10134;50.952;6.930;2022-07-22T07:01:37;20.10;99.90
19945;DHT22;10134;50.952;6.930;2022-07-22T07:04:05;20.10;99.90
19945;DHT22;10134;50.952;6.930;2022-07-22T07:06:33;20.20;99.90
19945;DHT22;10134;50.952;6.930;2022-07-22T07:09:00;20.10;99.90
19945;DHT22;10134;50.952;6.930;2022-07-22T07:11:28;20.20;99.90
19945;DHT22;10134;50.952;6.930;2022-07-22T07:13:56;20.20;99.90
19945;DHT22;10134;50.952;6.930;2022-07-22T07:16:23;20.20;99.90
19945;DHT22;10134;50.952;6.930;2022-07-22T07:18:51;20.20;99.90
19945;DHT22;10134;50.952;6.930;2022-07-22T07:21:18;20.20;99.90
19945;DHT22;10134;50.952;6.930;2022-07-22T07:23:46;20.20;99.90
19945;DHT22;10134;50.952;6.930;2022-07-22T07:26:14;20.20;99.90
19945;DHT22;10134;50.952;6.930;2022-07-22T07:28:41;20.20;99.90
19945;DHT22;10134;50.952;6.930;2022-07-22T07:31:30;20.30;99.90
19945;DHT22;10134;50.952;6.930;2022-07-22T07:34:00;20.30;99.90
19945;DHT22;10134;50.952;6.930;2022-07-22T07:36:27;20.30;99.90
19945;DHT22;10134;50.952;6.930;2022-07-22T07:38:55;20.30;99.90
19945;DHT22;10134;50.952;6.930;2022-07-22T07:41:22;20.30;99.90
19945;DHT22;10134;50.952;6.930;2022-07-22T07:43:51;20.30;99.90
19945;DHT22;10134;50.952;6.930;2022-07-22T07:46:19;20.30;99.90
19945;DHT22;10134;50.952;6.930;2022-07-22T07:48:47;20.40;99.90
19945;DHT22;10134;50.952;6.930;2022-07-22T07:51:15;20.40;99.90
19945;DHT22;10134;50.952;6.930;2022-07-22T07:53:43;20.40;99.90
19945;DHT22;10134;50.952;6.930;2022-07-22T07:56:11;20.40;99.90
19945;DHT22;10134;50.952;6.930;2022-07-22T07:58:38;20.40;99.90
19945;DHT22;10134;50.952;6.930;2022-07-22T08:01:07;20.40;99.90
19945;DHT22;10134;50.952;6.930;2022-07-22T08:03:36;20.40;99.90
19945;DHT22;10134;50.952;6.930;2022-07-22T08:06:05;20.40;99.90
19945;DHT22;10134;50.952;6.930;2022-07-22T08:08:32;20.50;99.90
19945;DHT22;10134;50.952;6.930;2022-07-22T08:11:06;20.50;99.90
19945;DHT22;10134;50.952;6.930;2022-07-22T08:13:37;20.50;99.90
19945;DHT22;10134;50.952;6.930;2022-07-22T08:16:22;20.50;99.90
19945;DHT22;10134;50.952;6.930;2022-07-22T08:18:51;20.50;99.90
19945;DHT22;10134;50.952;6.930;2022-07-22T08:21:19;20.50;99.90
19945;DHT22;10134;50.952;6.930;2022-07-22T08:23:53;20.50;99.90
19945;DHT22;10134;50.952;6.930;2022-07-22T08:26:22;20.60;99.90
19945;DHT22;10134;50.952;6.930;2022-07-22T08:28:57;20.60;99.90
19945;DHT22;10134;50.952;6.930;2022-07-22T08:31:27;20.60;99.90
19945;DHT22;10134;50.952;6.930;2022-07-22T08:33:57;20.60;99.90
19945;DHT22;10134;50.952;6.930;2022-07-22T08:36:27;20.60;99.90
19945;DHT22;10134;50.952;6.930;2022-07-22T08:38:54;20.70;99.90
19945;DHT22;10134;50.952;6.930;2022-07-22T08:41:23;20.70;99.90
19945;DHT22;10134;50.952;6.930;2022-07-22T08:43:51;20.70;99.90
19945;DHT22;10134;50.952;6.930;2022-07-22T08:46:19;20.70;99.90
19945;DHT22;10134;50.952;6.930;2022-07-22T08:49:12;20.80;99.90
19945;DHT22;10134;50.952;6.930;2022-07-22T08:51:54;20.70;99.90
19945;DHT22;10134;50.952;6.930;2022-07-22T08:54:24;20.70;99.90
19945;DHT22;10134;50.952;6.930;2022-07-22T08:56:52;20.80;99.90
19945;DHT22;10134;50.952;6.930;2022-07-22T08:59:21;20.80;99.90
19945;DHT22;10134;50.952;6.930;2022-07-22T09:02:09;20.80;99.90
19945;DHT22;10134;50.952;6.930;2022-07-22T09:05:01;20.80;99.90
19945;DHT22;10134;50.952;6.930;2022-07-22T09:07:49;20.90;99.90
19945;DHT22;10134;50.952;6.930;2022-07-22T09:10:23;20.90;99.90
19945;DHT22;10134;50.952;6.930;2022-07-22T09:13:33;20.90;99.90
19945;DHT22;10134;50.952;6.930;2022-07-22T09:16:41;20.90;99.90
19945;DHT22;10134;50.952;6.930;2022-07-22T09:19:32;21.00;99.90
19945;DHT22;10134;50.952;6.930;2022-07-22T09:22:40;21.00;99.90
19945;DHT22;10134;50.952;6.930;2022-07-22T09:25:25;21.00;99.90
19945;DHT22;10134;50.952;6.930;2022-07-22T09:28:23;21.10;99.90
19945;DHT22;10134;50.952;6.930;2022-07-22T09:31:28;21.10;99.90
19945;DHT22;10134;50.952;6.930;2022-07-22T09:34:29;21.10;99.90
19945;DHT22;10134;50.952;6.930;2022-07-22T09:37:01;21.20;99.90
19945;DHT22;10134;50.952;6.930;2022-07-22T09:39:31;21.20;99.90
19945;DHT22;10134;50.952;6.930;2022-07-22T09:42:06;21.20;99.90
19945;DHT22;10134;50.952;6.930;2022-07-22T09:44:34;21.30;99.90
19945;DHT22;10134;50.952;6.930;2022-07-22T09:47:29;21.30;99.90
19945;DHT22;10134;50.952;6.930;2022-07-22T09:50:29;21.40;99.90
19945;DHT22;10134;50.952;6.930;2022-07-22T09:53:16;21.40;99.90
19945;DHT22;10134;50.952;6.930;2022-07-22T09:55:56;21.40;99.90
19945;DHT22;10134;50.952;6.930;2022-07-22T09:58:25;21.50;99.90
19945;DHT22;10134;50.952;6.930;2022-07-22T10:00:55;21.50;99.90
19945;DHT22;10134;50.952;6.930;2022-07-22T10:03:30;21.60;99.90
19945;DHT22;10134;50.952;6.930;2022-07-22T10:06:01;21.60;99.90
19945;DHT22;10134;50.952;6.930;2022-07-22T10:08:31;21.70;99.90
19945;DHT22;10134;50.952;6.930;2022-07-22T10:11:04;21.70;99.90
19945;DHT22;10134;50.952;6.930;2022-07-22T10:13:33;21.70;99.90
19945;DHT22;10134;50.952;6.930;2022-07-22T10:16:05;21.80;99.90
19945;DHT22;10134;50.952;6.930;2022-07-22T10:18:33;21.80;99.90
19945;DHT22;10134;50.952;6.930;2022-07-22T10:21:09;21.90;99.90
19945;DHT22;10134;50.952;6.930;2022-07-22T10:26:58;22.00;99.90
19945;DHT22;10134;50.952;6.930;2022-07-22T10:29:38;22.00;99.90
19945;DHT22;10134;50.952;6.930;2022-07-22T10:34:43;22.10;99.90
19945;DHT22;10134;50.952;6.930;2022-07-22T10:40:15;22.10;99.90
19945;DHT22;10134;50.952;6.930;2022-07-22T10:48:46;22.30;99.90
19945;DHT22;10134;50.952;6.930;2022-07-22T10:51:18;22.30;99.90
19945;DHT22;10134;50.952;6.930;2022-07-22T10:56:32;22.30;99.90
19945;DHT22;10134;50.952;6.930;2022-07-22T10:59:10;22.40;99.90
19945;DHT22;10134;50.952;6.930;2022-07-22T11:01:50;22.40;99.90
19945;DHT22;10134;50.952;6.930;2022-07-22T11:04:26;22.50;99.90
19945;DHT22;10134;50.952;6.930;2022-07-22T11:06:55;22.50;99.90
19945;DHT22;10134;50.952;6.930;2022-07-22T11:09:30;22.50;99.90
19945;DHT22;10134;50.952;6.930;2022-07-22T11:11:58;22.60;99.90
19945;DHT22;10134;50.952;6.930;2022-07-22T11:14:31;22.60;99.90
19945;DHT22;10134;50.952;6.930;2022-07-22T11:17:08;22.60;99.90
19945;DHT22;10134;50.952;6.930;2022-07-22T11:19:37;22.70;99.90
19945;DHT22;10134;50.952;6.930;2022-07-22T11:22:09;22.70;99.90
19945;DHT22;10134;50.952;6.930;2022-07-22T11:24:38;22.80;99.90
19945;DHT22;10134;50.952;6.930;2022-07-22T11:27:14;22.80;99.90
19945;DHT22;10134;50.952;6.930;2022-07-22T11:29:42;22.90;99.90
19945;DHT22;10134;50.952;6.930;2022-07-22T11:32:13;22.90;99.90
19945;DHT22;10134;50.952;6.930;2022-07-22T11:34:43;23.00;99.90
19945;DHT22;10134;50.952;6.930;2022-07-22T11:37:23;23.00;99.90
19945;DHT22;10134;50.952;6.930;2022-07-22T11:39:52;23.00;99.90
19945;DHT22;10134;50.952;6.930;2022-07-22T11:42:26;23.10;99.90
19945;DHT22;10134;50.952;6.930;2022-07-22T11:44:53;23.10;99.90
19945;DHT22;10134;50.952;6.930;2022-07-22T11:47:21;23.10;99.90
19945;DHT22;10134;50.952;6.930;2022-07-22T11:49:48;23.20;99.90
19945;DHT22;10134;50.952;6.930;2022-07-22T11:52:16;23.20;99.90
19945;DHT22;10134;50.952;6.930;2022-07-22T11:54:44;23.20;99.90
19945;DHT22;10134;50.952;6.930;2022-07-22T11:57:13;23.30;99.90
19945;DHT22;10134;50.952;6.930;2022-07-22T11:59:41;23.30;99.90
19945;DHT22;10134;50.952;6.930;2022-07-22T12:02:09;23.30;99.90
19945;DHT22;10134;50.952;6.930;2022-07-22T12:04:39;23.40;99.90
19945;DHT22;10134;50.952;6.930;2022-07-22T12:07:10;23.40;99.90
19945;DHT22;10134;50.952;6.930;2022-07-22T12:09:38;23.40;99.90
19945;DHT22;10134;50.952;6.930;2022-07-22T12:12:08;23.40;99.90
19945;DHT22;10134;50.952;6.930;2022-07-22T12:14:36;23.50;99.90
19945;DHT22;10134;50.952;6.930;2022-07-22T12:17:06;23.50;99.90
19945;DHT22;10134;50.952;6.930;2022-07-22T12:19:34;23.60;99.90
19945;DHT22;10134;50.952;6.930;2022-07-22T12:22:03;23.60;99.90
19945;DHT22;10134;50.952;6.930;2022-07-22T12:24:37;23.60;99.90
19945;DHT22;10134;50.952;6.930;2022-07-22T12:27:06;23.70;99.90
19945;DHT22;10134;50.952;6.930;2022-07-22T12:34:44;23.80;99.90
19945;DHT22;10134;50.952;6.930;2022-07-22T12:43:14;24.00;99.90
19945;DHT22;10134;50.952;6.930;2022-07-22T12:45:18;24.00;99.90
19945;DHT22;10134;50.952;6.930;2022-07-22T12:47:51;24.10;99.90
19945;DHT22;10134;50.952;6.930;2022-07-22T12:50:31;24.10;99.90
19945;DHT22;10134;50.952;6.930;2022-07-22T12:53:00;24.20;99.90
19945;DHT22;10134;50.952;6.930;2022-07-22T12:58:15;24.30;99.90
19945;DHT22;10134;50.952;6.930;2022-07-22T13:00:50;24.40;99.90
19945;DHT22;10134;50.952;6.930;2022-07-22T13:03:19;24.40;99.90
19945;DHT22;10134;50.952;6.930;2022-07-22T13:05:48;24.50;99.80
19945;DHT22;10134;50.952;6.930;2022-07-22T13:08:16;24.50;99.60
19945;DHT22;10134;50.952;6.930;2022-07-22T13:10:44;24.60;99.40
19945;DHT22;10134;50.952;6.930;2022-07-22T13:13:11;24.60;99.20
19945;DHT22;10134;50.952;6.930;2022-07-22T13:15:39;24.70;99.10
19945;DHT22;10134;50.952;6.930;2022-07-22T13:18:06;24.80;99.10
19945;DHT22;10134;50.952;6.930;2022-07-22T13:20:34;24.80;99.00
19945;DHT22;10134;50.952;6.930;2022-07-22T13:23:01;24.90;99.00
19945;DHT22;10134;50.952;6.930;2022-07-22T13:25:28;24.90;98.90
19945;DHT22;10134;50.952;6.930;2022-07-22T13:27:58;25.00;98.40
19945;DHT22;10134;50.952;6.930;2022-07-22T13:30:26;25.00;98.40
19945;DHT22;10134;50.952;6.930;2022-07-22T13:32:53;25.10;98.40
19945;DHT22;10134;50.952;6.930;2022-07-22T13:35:20;25.10;98.10
19945;DHT22;10134;50.952;6.930;2022-07-22T13:37:48;25.20;98.00
19945;DHT22;10134;50.952;6.930;2022-07-22T13:40:15;25.30;97.90
19945;DHT22;10134;50.952;6.930;2022-07-22T13:42:42;25.40;97.80
19945;DHT22;10134;50.952;6.930;2022-07-22T13:45:10;25.50;97.40
19945;DHT22;10134;50.952;6.930;2022-07-22T13:47:42;25.50;96.30
19945;DHT22;10134;50.952;6.930;2022-07-22T13:50:10;25.60;96.80
19945;DHT22;10134;50.952;6.930;2022-07-22T13:52:37;25.80;96.90
19945;DHT22;10134;50.952;6.930;2022-07-22T13:55:05;25.90;96.50
19945;DHT22;10134;50.952;6.930;2022-07-22T13:57:33;26.10;96.00
19945;DHT22;10134;50.952;6.930;2022-07-22T14:00:01;26.20;95.80
19945;DHT22;10134;50.952;6.930;2022-07-22T14:02:29;26.40;95.80
19945;DHT22;10134;50.952;6.930;2022-07-22T14:04:57;26.50;95.60
19945;DHT22;10134;50.952;6.930;2022-07-22T14:07:24;26.50;95.10
19945;DHT22;10134;50.952;6.930;2022-07-22T14:09:51;26.60;94.80
19945;DHT22;10134;50.952;6.930;2022-07-22T14:12:18;26.70;94.40
19945;DHT22;10134;50.952;6.930;2022-07-22T14:14:46;26.70;94.30
19945;DHT22;10134;50.952;6.930;2022-07-22T14:17:13;26.70;94.10
19945;DHT22;10134;50.952;6.930;2022-07-22T14:19:41;26.80;94.30
19945;DHT22;10134;50.952;6.930;2022-07-22T14:22:08;26.80;94.00
19945;DHT22;10134;50.952;6.930;2022-07-22T14:24:35;26.90;93.90
19945;DHT22;10134;50.952;6.930;2022-07-22T14:27:02;26.80;93.60
19945;DHT22;10134;50.952;6.930;2022-07-22T14:29:30;26.80;93.40
19945;DHT22;10134;50.952;6.930;2022-07-22T14:31:57;26.90;93.30
19945;DHT22;10134;50.952;6.930;2022-07-22T14:34:24;26.90;93.10
19945;DHT22;10134;50.952;6.930;2022-07-22T14:36:52;26.90;92.90
19945;DHT22;10134;50.952;6.930;2022-07-22T14:39:19;26.80;92.60
19945;DHT22;10134;50.952;6.930;2022-07-22T14:41:46;26.80;92.00
19945;DHT22;10134;50.952;6.930;2022-07-22T14:44:14;26.80;92.50
19945;DHT22;10134;50.952;6.930;2022-07-22T14:46:41;26.90;92.70
19945;DHT22;10134;50.952;6.930;2022-07-22T14:49:08;27.00;92.90
19945;DHT22;10134;50.952;6.930;2022-07-22T14:51:43;27.00;92.90
19945;DHT22;10134;50.952;6.930;2022-07-22T14:54:10;27.10;92.50
19945;DHT22;10134;50.952;6.930;2022-07-22T14:56:39;27.10;92.50
19945;DHT22;10134;50.952;6.930;2022-07-22T14:59:07;27.10;92.30
19945;DHT22;10134;50.952;6.930;2022-07-22T15:01:34;27.10;92.00
19945;DHT22;10134;50.952;6.930;2022-07-22T15:04:01;27.10;91.90
19945;DHT22;10134;50.952;6.930;2022-07-22T15:06:29;27.10;91.90
19945;DHT22;10134;50.952;6.930;2022-07-22T15:08:56;27.10;91.90
19945;DHT22;10134;50.952;6.930;2022-07-22T15:11:24;27.10;92.00
19945;DHT22;10134;50.952;6.930;2022-07-22T15:13:51;27.10;91.70
19945;DHT22;10134;50.952;6.930;2022-07-22T15:16:19;27.10;91.70
19945;DHT22;10134;50.952;6.930;2022-07-22T15:18:48;27.10;91.00
19945;DHT22;10134;50.952;6.930;2022-07-22T15:21:16;27.10;91.20
19945;DHT22;10134;50.952;6.930;2022-07-22T15:23:43;27.00;91.30
19945;DHT22;10134;50.952;6.930;2022-07-22T15:26:11;27.10;91.40
19945;DHT22;10134;50.952;6.930;2022-07-22T15:28:38;27.10;91.30
19945;DHT22;10134;50.952;6.930;2022-07-22T15:31:06;27.10;91.30
19945;DHT22;10134;50.952;6.930;2022-07-22T15:33:33;27.10;91.10
19945;DHT22;10134;50.952;6.930;2022-07-22T15:36:06;27.20;91.00
19945;DHT22;10134;50.952;6.930;2022-07-22T15:38:34;27.20;90.80
19945;DHT22;10134;50.952;6.930;2022-07-22T15:41:03;27.20;90.70
19945;DHT22;10134;50.952;6.930;2022-07-22T15:43:30;27.20;90.50
19945;DHT22;10134;50.952;6.930;2022-07-22T15:45:58;27.20;90.40
19945;DHT22;10134;50.952;6.930;2022-07-22T15:48:25;27.20;90.30
19945;DHT22;10134;50.952;6.930;2022-07-22T15:50:53;27.10;90.20
19945;DHT22;10134;50.952;6.930;2022-07-22T15:53:28;27.10;90.20
19945;DHT22;10134;50.952;6.930;2022-07-22T15:55:56;27.10;90.20
19945;DHT22;10134;50.952;6.930;2022-07-22T15:58:23;27.10;90.10
19945;DHT22;10134;50.952;6.930;2022-07-22T16:01:08;27.10;90.20
19945;DHT22;10134;50.952;6.930;2022-07-22T16:03:36;27.10;90.00
19945;DHT22;10134;50.952;6.930;2022-07-22T16:06:03;27.10;89.90
19945;DHT22;10134;50.952;6.930;2022-07-22T16:08:31;27.10;89.80
19945;DHT22;10134;50.952;6.930;2022-07-22T16:10:59;27.10;89.90
19945;DHT22;10134;50.952;6.930;2022-07-22T16:13:26;27.10;89.50
19945;DHT22;10134;50.952;6.930;2022-07-22T16:15:53;27.10;89.40
19945;DHT22;10134;50.952;6.930;2022-07-22T16:18:20;27.00;89.20
19945;DHT22;10134;50.952;6.930;2022-07-22T16:20:48;27.00;89.10
19945;DHT22;10134;50.952;6.930;2022-07-22T16:23:15;27.00;88.90